createdAt,value
2019-05-09T00:00:59.782Z,989.94
2019-05-09T00:01:59.768Z,989.93
2019-05-09T00:02:59.764Z,989.93
2019-05-09T00:03:59.776Z,989.95
2019-05-09T00:04:59.737Z,989.97
2019-05-09T00:05:59.718Z,989.94
2019-05-09T00:06:59.716Z,989.93
2019-05-09T00:07:59.705Z,989.94
2019-05-09T00:08:59.694Z,989.93
2019-05-09T00:09:59.708Z,989.98
2019-05-09T00:10:59.664Z,989.94
2019-05-09T00:11:59.655Z,989.92
2019-05-09T00:12:59.642Z,989.97
2019-05-09T00:13:59.630Z,989.97
2019-05-09T00:14:59.647Z,989.93
2019-05-09T00:15:59.612Z,989.96
2019-05-09T00:16:59.600Z,989.97
2019-05-09T00:17:59.588Z,990.00
2019-05-09T00:18:59.574Z,990.02
2019-05-09T00:19:59.594Z,989.99
2019-05-09T00:20:59.575Z,989.97
2019-05-09T00:21:59.542Z,990.00
2019-05-09T00:22:59.530Z,990.04
2019-05-09T00:23:59.519Z,990.00
2019-05-09T00:24:59.541Z,990.07
2019-05-09T00:25:59.528Z,990.03
2019-05-09T00:26:59.508Z,990.03
2019-05-09T00:27:59.474Z,990.04
2019-05-09T00:28:59.471Z,990.01
2019-05-09T00:29:59.489Z,990.08
2019-05-09T00:30:59.473Z,990.02
2019-05-09T00:31:59.428Z,990.09
2019-05-09T00:32:59.417Z,990.05
2019-05-09T00:33:59.412Z,990.02
2019-05-09T00:34:59.421Z,990.06
2019-05-09T00:35:59.383Z,990.08
2019-05-09T00:36:59.377Z,990.00
2019-05-09T00:37:59.361Z,990.03
2019-05-09T00:38:59.351Z,990.03
2019-05-09T00:39:59.370Z,990.02
2019-05-09T00:40:59.327Z,990.04
2019-05-09T00:41:59.344Z,990.03
2019-05-09T00:42:59.304Z,990.06
2019-05-09T00:43:59.301Z,990.04
2019-05-09T00:44:59.287Z,990.03
2019-05-09T00:45:59.297Z,990.00
2019-05-09T00:46:59.258Z,990.02
2019-05-09T00:47:59.254Z,990.07
2019-05-09T00:48:59.245Z,990.00
2019-05-09T00:49:59.226Z,990.02
2019-05-09T00:50:59.238Z,990.09
2019-05-09T00:51:59.233Z,990.12
2019-05-09T00:52:59.194Z,990.07
2019-05-09T00:53:59.182Z,990.08
2019-05-09T00:54:59.179Z,990.09
2019-05-09T00:55:59.190Z,990.09
2019-05-09T00:56:59.176Z,990.07
2019-05-09T00:57:59.134Z,990.13
2019-05-09T00:58:59.125Z,990.12
2019-05-09T00:59:59.124Z,990.12
2019-05-09T01:00:59.116Z,990.12
2019-05-09T01:01:59.118Z,990.12
2019-05-09T01:02:59.082Z,990.14
2019-05-09T01:03:59.075Z,990.15
2019-05-09T01:04:59.060Z,990.14
2019-05-09T01:05:59.053Z,990.11
2019-05-09T01:06:59.063Z,990.12
2019-05-09T01:07:59.029Z,990.15
2019-05-09T01:08:59.016Z,990.13
2019-05-09T01:09:59.007Z,990.16
2019-05-09T01:11:09.366Z,990.12
2019-05-09T01:11:59.999Z,990.14
2019-05-09T01:12:58.966Z,990.13
2019-05-09T01:13:58.959Z,990.12
2019-05-09T01:14:58.946Z,990.11
2019-05-09T01:15:58.931Z,990.05
2019-05-09T01:16:58.959Z,990.09
2019-05-09T01:17:58.913Z,990.12
2019-05-09T01:18:58.898Z,990.03
2019-05-09T01:19:59.048Z,990.05
2019-05-09T01:20:58.877Z,990.06
2019-05-09T01:21:58.905Z,990.06
2019-05-09T01:22:58.855Z,990.06
2019-05-09T01:23:58.919Z,990.07
2019-05-09T01:24:58.835Z,990.09
2019-05-09T01:25:58.935Z,990.06
2019-05-09T01:26:58.839Z,990.07
2019-05-09T01:27:58.909Z,990.05
2019-05-09T01:28:58.784Z,990.10
2019-05-09T01:29:58.777Z,990.09
2019-05-09T01:30:58.766Z,990.10
2019-05-09T01:31:58.752Z,990.13
2019-05-09T01:32:58.781Z,990.12
2019-05-09T01:33:58.731Z,990.12
2019-05-09T01:34:58.718Z,990.18
2019-05-09T01:35:58.709Z,990.17
2019-05-09T01:36:58.695Z,990.10
2019-05-09T01:37:58.685Z,990.11
2019-05-09T01:38:58.703Z,990.11
2019-05-09T01:39:58.667Z,990.14
2019-05-09T01:40:58.649Z,990.16
2019-05-09T01:41:58.638Z,990.12
2019-05-09T01:42:58.661Z,990.16
2019-05-09T01:43:58.622Z,990.14
2019-05-09T01:44:58.604Z,990.12
2019-05-09T01:45:58.597Z,990.15
2019-05-09T01:46:58.582Z,990.20
2019-05-09T01:47:58.597Z,990.15
2019-05-09T01:48:58.564Z,990.22
2019-05-09T01:49:58.554Z,990.20
2019-05-09T01:50:58.543Z,990.23
2019-05-09T01:51:58.533Z,990.21
2019-05-09T01:52:58.546Z,990.25
2019-05-09T01:53:58.530Z,990.25
2019-05-09T01:54:58.492Z,990.28
2019-05-09T01:55:58.484Z,990.26
2019-05-09T01:56:58.470Z,990.26
2019-05-09T01:57:58.497Z,990.23
2019-05-09T01:58:58.448Z,990.21
2019-05-09T01:59:58.447Z,990.25
2019-05-09T02:00:58.424Z,990.27
2019-05-09T02:01:58.416Z,990.21
2019-05-09T02:02:58.438Z,990.23
2019-05-09T02:03:58.396Z,990.25
2019-05-09T02:04:58.390Z,990.21
2019-05-09T02:05:58.376Z,990.20
2019-05-09T02:06:58.357Z,990.20
2019-05-09T02:07:58.397Z,990.23
2019-05-09T02:08:58.340Z,990.22
2019-05-09T02:09:58.326Z,990.22
2019-05-09T02:10:58.315Z,990.21
2019-05-09T02:11:58.301Z,990.23
2019-05-09T02:12:58.292Z,990.19
2019-05-09T02:13:58.325Z,990.18
2019-05-09T02:14:58.279Z,990.19
2019-05-09T02:15:58.255Z,990.16
2019-05-09T02:16:58.243Z,990.20
2019-05-09T02:18:01.808Z,990.21
2019-05-09T02:18:59.252Z,990.18
2019-05-09T02:19:58.224Z,990.18
2019-05-09T02:20:58.208Z,990.16
2019-05-09T02:21:58.190Z,990.14
2019-05-09T02:22:58.178Z,990.16
2019-05-09T02:23:58.199Z,990.14
2019-05-09T02:24:58.154Z,990.13
2019-05-09T02:25:58.163Z,990.12
2019-05-09T02:26:58.134Z,990.14
2019-05-09T02:27:58.132Z,990.15
2019-05-09T02:28:58.225Z,990.19
2019-05-09T02:29:58.132Z,990.21
2019-05-09T02:30:58.231Z,990.22
2019-05-09T02:31:58.080Z,990.18
2019-05-09T02:32:58.102Z,990.20
2019-05-09T02:33:58.060Z,990.17
2019-05-09T02:34:58.154Z,990.15
2019-05-09T02:36:01.692Z,990.18
2019-05-09T02:36:58.787Z,990.16
2019-05-09T02:37:58.789Z,990.16
2019-05-09T02:38:59.113Z,990.14
2019-05-09T02:39:59.198Z,990.12
2019-05-09T02:40:59.483Z,990.11
2019-05-09T02:42:08.455Z,990.13
2019-05-09T02:42:59.231Z,990.15
2019-05-09T02:43:58.676Z,990.13
2019-05-09T02:44:59.485Z,990.12
2019-05-09T02:45:59.537Z,990.08
2019-05-09T02:46:58.919Z,990.13
2019-05-09T02:47:59.043Z,990.12
2019-05-09T02:48:59.410Z,990.11
2019-05-09T02:49:58.912Z,990.12
2019-05-09T02:51:00.305Z,990.13
2019-05-09T02:51:59.208Z,990.09
2019-05-09T02:52:59.050Z,990.08
2019-05-09T02:53:58.549Z,990.07
2019-05-09T02:54:58.470Z,990.06
2019-05-09T02:55:58.646Z,990.06
2019-05-09T02:56:58.271Z,990.03
2019-05-09T02:57:59.190Z,990.04
2019-05-09T02:58:58.923Z,990.08
2019-05-09T02:59:59.244Z,990.06
2019-05-09T03:00:59.727Z,990.08
2019-05-09T03:01:58.698Z,990.05
2019-05-09T03:02:59.588Z,990.08
2019-05-09T03:03:58.951Z,990.10
2019-05-09T03:04:58.299Z,990.08
2019-05-09T03:05:59.756Z,990.06
2019-05-09T03:06:59.804Z,990.04
2019-05-09T03:07:58.359Z,990.06
2019-05-09T03:08:59.437Z,990.02
2019-05-09T03:09:58.367Z,990.04
2019-05-09T03:10:59.107Z,990.03
2019-05-09T03:11:58.812Z,990.05
2019-05-09T03:12:59.334Z,990.03
2019-05-09T03:13:58.543Z,990.04
2019-05-09T03:14:58.710Z,990.03
2019-05-09T03:15:58.606Z,990.06
2019-05-09T03:16:58.620Z,990.00
2019-05-09T03:17:59.909Z,990.05
2019-05-09T03:18:58.508Z,990.01
2019-05-09T03:19:58.667Z,990.06
2019-05-09T03:20:58.503Z,990.02
2019-05-09T03:21:58.489Z,990.06
2019-05-09T03:22:58.277Z,990.06
2019-05-09T03:23:59.196Z,990.01
2019-05-09T03:24:58.887Z,990.02
2019-05-09T03:25:58.787Z,990.05
2019-05-09T03:26:59.574Z,990.01
2019-05-09T03:27:58.705Z,990.07
2019-05-09T03:28:59.148Z,990.04
2019-05-09T03:29:58.917Z,990.03
2019-05-09T03:30:59.232Z,990.00
2019-05-09T03:31:59.980Z,990.04
2019-05-09T03:32:59.679Z,990.03
2019-05-09T03:33:59.472Z,990.04
2019-05-09T03:34:58.089Z,990.05
2019-05-09T03:35:57.480Z,990.05
2019-05-09T03:36:58.084Z,990.09
2019-05-09T03:37:57.334Z,990.06
2019-05-09T03:38:57.901Z,990.04
2019-05-09T03:39:58.127Z,990.08
2019-05-09T03:40:58.053Z,990.01
2019-05-09T03:41:57.544Z,990.07
2019-05-09T03:42:57.476Z,990.06
2019-05-09T03:43:58.555Z,990.06
2019-05-09T03:44:58.057Z,990.03
2019-05-09T03:45:58.514Z,990.00
2019-05-09T03:46:58.112Z,990.03
2019-05-09T03:47:58.281Z,990.04
2019-05-09T03:48:58.279Z,990.08
2019-05-09T03:49:58.696Z,990.04
2019-05-09T03:50:57.715Z,990.07
2019-05-09T03:51:58.514Z,990.05
2019-05-09T03:52:57.954Z,990.01
2019-05-09T03:53:57.717Z,990.01
2019-05-09T03:54:57.941Z,990.05
2019-05-09T03:55:57.691Z,990.05
2019-05-09T03:56:57.297Z,990.01
2019-05-09T03:57:58.103Z,990.04
2019-05-09T03:58:57.831Z,990.04
2019-05-09T03:59:57.333Z,990.05
2019-05-09T04:00:57.996Z,990.03
2019-05-09T04:01:59.051Z,989.99
2019-05-09T04:02:58.037Z,989.97
2019-05-09T04:03:58.411Z,989.99
2019-05-09T04:04:57.741Z,989.97
2019-05-09T04:06:02.646Z,989.98
2019-05-09T04:06:58.707Z,990.00
2019-05-09T04:07:58.255Z,990.04
2019-05-09T04:08:58.587Z,990.08
2019-05-09T04:09:58.506Z,990.07
2019-05-09T04:10:58.710Z,990.09
2019-05-09T04:11:58.352Z,990.14
2019-05-09T04:12:59.515Z,990.04
2019-05-09T04:13:58.156Z,990.07
2019-05-09T04:14:58.433Z,990.08
2019-05-09T04:15:58.184Z,990.05
2019-05-09T04:16:57.629Z,990.02
2019-05-09T04:17:57.858Z,990.03
2019-05-09T04:18:58.174Z,990.08
2019-05-09T04:19:57.846Z,990.05
2019-05-09T04:20:57.427Z,990.01
2019-05-09T04:21:57.583Z,990.05
2019-05-09T04:22:59.286Z,990.05
2019-05-09T04:23:58.522Z,990.10
2019-05-09T04:24:57.670Z,990.17
2019-05-09T04:25:58.292Z,990.15
2019-05-09T04:26:57.544Z,990.13
2019-05-09T04:27:58.273Z,990.19
2019-05-09T04:28:57.806Z,990.19
2019-05-09T04:29:57.443Z,990.18
2019-05-09T04:30:58.154Z,990.21
2019-05-09T04:31:57.472Z,990.26
2019-05-09T04:32:58.157Z,990.25
2019-05-09T04:33:57.410Z,990.24
2019-05-09T04:34:57.837Z,990.26
2019-05-09T04:35:57.928Z,990.28
2019-05-09T04:36:57.621Z,990.27
2019-05-09T04:37:58.420Z,990.25
2019-05-09T04:38:57.802Z,990.24
2019-05-09T04:39:59.506Z,990.26
2019-05-09T04:40:58.409Z,990.25
2019-05-09T04:42:03.738Z,990.25
2019-05-09T04:43:10.960Z,990.26
2019-05-09T04:43:57.601Z,990.21
2019-05-09T04:44:57.833Z,990.22
2019-05-09T04:45:57.997Z,990.24
2019-05-09T04:47:00.123Z,990.24
2019-05-09T04:47:57.796Z,990.24
2019-05-09T04:49:00.971Z,990.29
2019-05-09T04:49:58.360Z,990.30
2019-05-09T04:50:58.884Z,990.32
2019-05-09T04:51:58.399Z,990.32
2019-05-09T04:52:58.011Z,990.35
2019-05-09T04:53:58.400Z,990.34
2019-05-09T04:54:57.595Z,990.38
2019-05-09T04:55:58.042Z,990.39
2019-05-09T04:56:57.376Z,990.38
2019-05-09T04:57:57.244Z,990.39
2019-05-09T04:58:58.370Z,990.37
2019-05-09T04:59:57.509Z,990.39
2019-05-09T05:00:57.280Z,990.36
2019-05-09T05:01:58.100Z,990.42
2019-05-09T05:02:57.584Z,990.36
2019-05-09T05:03:57.343Z,990.41
2019-05-09T05:04:58.484Z,990.45
2019-05-09T05:05:58.607Z,990.46
2019-05-09T05:06:57.868Z,990.51
2019-05-09T05:07:57.406Z,990.47
2019-05-09T05:08:58.419Z,990.48
2019-05-09T05:09:57.637Z,990.42
2019-05-09T05:10:58.242Z,990.47
2019-05-09T05:11:57.937Z,990.48
2019-05-09T05:12:57.338Z,990.48
2019-05-09T05:13:58.406Z,990.52
2019-05-09T05:14:57.965Z,990.53
2019-05-09T05:15:57.842Z,990.55
2019-05-09T05:17:06.213Z,990.58
2019-05-09T05:17:58.303Z,990.58
2019-05-09T05:18:58.278Z,990.56
2019-05-09T05:19:57.975Z,990.61
2019-05-09T05:20:57.580Z,990.54
2019-05-09T05:21:58.264Z,990.57
2019-05-09T05:22:58.126Z,990.58
2019-05-09T05:23:57.693Z,990.57
2019-05-09T05:24:59.495Z,990.56
2019-05-09T05:25:57.975Z,990.55
2019-05-09T05:26:57.917Z,990.54
2019-05-09T05:27:58.054Z,990.57
2019-05-09T05:28:58.059Z,990.51
2019-05-09T05:29:58.343Z,990.56
2019-05-09T05:30:58.141Z,990.51
2019-05-09T05:31:58.085Z,990.52
2019-05-09T05:32:57.928Z,990.48
2019-05-09T05:33:57.766Z,990.48
2019-05-09T05:34:57.282Z,990.46
2019-05-09T05:35:57.375Z,990.43
2019-05-09T05:36:58.100Z,990.45
2019-05-09T05:37:58.065Z,990.45
2019-05-09T05:38:58.294Z,990.48
2019-05-09T05:39:58.202Z,990.51
2019-05-09T05:40:57.847Z,990.52
2019-05-09T05:41:57.640Z,990.49
2019-05-09T05:42:58.419Z,990.52
2019-05-09T05:43:57.875Z,990.52
2019-05-09T05:44:58.093Z,990.52
2019-05-09T05:45:58.336Z,990.50
2019-05-09T05:46:58.310Z,990.51
2019-05-09T05:47:57.611Z,990.52
2019-05-09T05:48:57.753Z,990.58
2019-05-09T05:49:57.757Z,990.52
2019-05-09T05:50:57.814Z,990.58
2019-05-09T05:51:57.659Z,990.56
2019-05-09T05:52:57.763Z,990.61
2019-05-09T05:53:57.365Z,990.65
2019-05-09T05:54:58.055Z,990.64
2019-05-09T05:55:57.873Z,990.69
2019-05-09T05:56:57.824Z,990.64
2019-05-09T05:57:57.899Z,990.72
2019-05-09T05:58:57.976Z,990.71
2019-05-09T05:59:58.343Z,990.73
2019-05-09T06:00:55.769Z,990.75
2019-05-09T06:01:58.080Z,990.75
2019-05-09T06:02:58.325Z,990.72
2019-05-09T06:03:55.704Z,990.73
2019-05-09T06:04:57.769Z,990.70
2019-05-09T06:05:58.223Z,990.73
2019-05-09T06:06:55.671Z,990.72
2019-05-09T06:07:57.687Z,990.77
2019-05-09T06:08:57.730Z,990.72
2019-05-09T06:09:57.548Z,990.75
2019-05-09T06:10:57.597Z,990.71
2019-05-09T06:11:57.722Z,990.76
2019-05-09T06:12:57.582Z,990.71
2019-05-09T06:14:03.937Z,990.69
2019-05-09T06:14:58.206Z,990.74
2019-05-09T06:15:55.594Z,990.74
2019-05-09T06:16:55.576Z,990.72
2019-05-09T06:17:57.885Z,990.65
2019-05-09T06:18:58.329Z,990.67
2019-05-09T06:19:55.523Z,990.70
2019-05-09T06:20:55.556Z,990.74
2019-05-09T06:21:57.366Z,990.67
2019-05-09T06:22:57.973Z,990.80
2019-05-09T06:23:55.481Z,990.69
2019-05-09T06:24:55.467Z,990.76
2019-05-09T06:25:55.493Z,990.76
2019-05-09T06:26:55.464Z,990.76
2019-05-09T06:27:55.437Z,990.77
2019-05-09T06:28:57.553Z,990.76
2019-05-09T06:29:57.927Z,990.77
2019-05-09T06:30:55.450Z,990.76
2019-05-09T06:31:55.418Z,990.79
2019-05-09T06:32:57.850Z,990.76
2019-05-09T06:33:57.601Z,990.80
2019-05-09T06:34:57.654Z,990.83
2019-05-09T06:35:55.352Z,990.77
2019-05-09T06:36:58.361Z,990.76
2019-05-09T06:37:55.328Z,990.82
2019-05-09T06:38:55.323Z,990.82
2019-05-09T06:39:55.308Z,990.81
2019-05-09T06:40:55.291Z,990.77
2019-05-09T06:41:57.352Z,990.78
2019-05-09T06:42:55.277Z,990.74
2019-05-09T06:44:11.053Z,990.77
2019-05-09T06:44:58.319Z,990.75
2019-05-09T06:45:57.480Z,990.77
2019-05-09T06:46:55.260Z,990.74
2019-05-09T06:47:55.210Z,990.74
2019-05-09T06:49:17.964Z,990.74
2019-05-09T06:49:57.397Z,990.77
2019-05-09T06:50:55.183Z,990.78
2019-05-09T06:51:55.211Z,990.75
2019-05-09T06:52:57.200Z,990.74
2019-05-09T06:53:55.145Z,990.78
2019-05-09T06:54:55.225Z,990.78
2019-05-09T06:55:55.119Z,990.77
2019-05-09T06:56:55.149Z,990.76
2019-05-09T06:57:55.104Z,990.76
2019-05-09T06:58:55.087Z,990.75
2019-05-09T06:59:55.091Z,990.78
2019-05-09T07:00:55.098Z,990.70
2019-05-09T07:01:57.469Z,990.69
2019-05-09T07:02:57.604Z,990.76
2019-05-09T07:03:57.500Z,990.75
2019-05-09T07:04:55.019Z,990.72
2019-05-09T07:05:55.016Z,990.75
2019-05-09T07:06:55.032Z,990.75
2019-05-09T07:07:55.010Z,990.78
2019-05-09T07:08:54.978Z,990.81
2019-05-09T07:09:54.971Z,990.81
2019-05-09T07:10:54.954Z,990.80
2019-05-09T07:11:54.939Z,990.83
2019-05-09T07:12:54.956Z,990.79
2019-05-09T07:13:54.928Z,990.77
2019-05-09T07:14:54.907Z,990.78
2019-05-09T07:15:54.893Z,990.76
2019-05-09T07:16:54.880Z,990.81
2019-05-09T07:17:54.903Z,990.86
2019-05-09T07:18:54.862Z,990.83
2019-05-09T07:19:54.854Z,990.84
2019-05-09T07:20:54.842Z,990.79
2019-05-09T07:21:54.944Z,990.79
2019-05-09T07:22:54.852Z,990.79
2019-05-09T07:23:54.807Z,990.80
2019-05-09T07:25:00.884Z,990.78
2019-05-09T07:25:55.787Z,990.80
2019-05-09T07:26:54.775Z,990.71
2019-05-09T07:27:54.788Z,990.79
2019-05-09T07:28:54.749Z,990.77
2019-05-09T07:29:54.735Z,990.74
2019-05-09T07:30:54.729Z,990.78
2019-05-09T07:31:54.715Z,990.78
2019-05-09T07:32:54.726Z,990.85
2019-05-09T07:33:54.702Z,990.86
2019-05-09T07:34:54.694Z,990.82
2019-05-09T07:35:54.666Z,990.85
2019-05-09T07:36:54.654Z,990.84
2019-05-09T07:37:54.677Z,990.84
2019-05-09T07:38:54.641Z,990.77
2019-05-09T07:39:54.636Z,990.74
2019-05-09T07:40:54.610Z,990.79
2019-05-09T07:41:54.601Z,990.81
2019-05-09T07:42:54.616Z,990.82
2019-05-09T07:43:54.595Z,990.77
2019-05-09T07:44:54.569Z,990.78
2019-05-09T07:45:54.554Z,990.80
2019-05-09T07:46:54.546Z,990.82
2019-05-09T07:47:54.564Z,990.85
2019-05-09T07:48:54.564Z,990.83
2019-05-09T07:49:54.512Z,990.81
2019-05-09T07:50:54.527Z,990.82
2019-05-09T07:51:54.494Z,990.81
2019-05-09T07:52:54.486Z,990.80
2019-05-09T07:53:54.501Z,990.81
2019-05-09T07:54:54.462Z,990.83
2019-05-09T07:55:54.448Z,990.78
2019-05-09T07:56:54.442Z,990.83
2019-05-09T07:57:55.487Z,990.80
2019-05-09T07:58:54.441Z,990.81
2019-05-09T07:59:54.399Z,990.78
2019-05-09T08:00:54.391Z,990.80
2019-05-09T08:01:54.391Z,990.75
2019-05-09T08:02:54.365Z,990.78
2019-05-09T08:03:54.386Z,990.82
2019-05-09T08:04:54.347Z,990.78
2019-05-09T08:05:54.335Z,990.78
2019-05-09T08:06:54.325Z,990.77
2019-05-09T08:07:54.310Z,990.74
2019-05-09T08:08:54.336Z,990.73
2019-05-09T08:09:54.358Z,990.72
2019-05-09T08:10:54.278Z,990.73
2019-05-09T08:11:54.266Z,990.74
2019-05-09T08:12:54.266Z,990.70
2019-05-09T08:13:54.312Z,990.72
2019-05-09T08:15:07.216Z,990.73
2019-05-09T08:15:55.226Z,990.73
2019-05-09T08:16:54.211Z,990.69
2019-05-09T08:17:54.211Z,990.70
2019-05-09T08:18:54.216Z,990.75
2019-05-09T08:19:54.175Z,990.65
2019-05-09T08:20:54.189Z,990.65
2019-05-09T08:21:54.154Z,990.74
2019-05-09T08:22:58.676Z,990.68
2019-05-09T08:23:57.666Z,990.70
2019-05-09T08:24:54.123Z,990.69
2019-05-09T08:25:54.112Z,990.72
2019-05-09T08:26:54.098Z,990.75
2019-05-09T08:27:54.092Z,990.80
2019-05-09T08:28:54.118Z,990.79
2019-05-09T08:29:54.096Z,990.80
2019-05-09T08:30:54.062Z,990.78
2019-05-09T08:31:54.063Z,990.78
2019-05-09T08:32:54.033Z,990.77
2019-05-09T08:33:54.025Z,990.82
2019-05-09T08:34:54.041Z,990.79
2019-05-09T08:35:53.998Z,990.80
2019-05-09T08:36:53.986Z,990.79
2019-05-09T08:37:53.974Z,990.82
2019-05-09T08:38:53.969Z,990.80
2019-05-09T08:39:53.987Z,990.77
2019-05-09T08:40:53.986Z,990.75
2019-05-09T08:41:53.940Z,990.77
2019-05-09T08:42:53.925Z,990.76
2019-05-09T08:43:53.910Z,990.77
2019-05-09T08:44:53.924Z,990.80
2019-05-09T08:45:53.902Z,990.77
2019-05-09T08:46:53.872Z,990.73
2019-05-09T08:47:53.864Z,990.77
2019-05-09T08:48:53.947Z,990.76
2019-05-09T08:49:53.875Z,990.76
2019-05-09T08:50:53.944Z,990.78
2019-05-09T08:52:09.132Z,990.77
2019-05-09T08:52:54.814Z,990.80
2019-05-09T08:53:53.809Z,990.82
2019-05-09T08:54:53.785Z,990.79
2019-05-09T08:55:53.806Z,990.79
2019-05-09T08:56:53.779Z,990.74
2019-05-09T08:57:53.759Z,990.76
2019-05-09T08:58:53.740Z,990.84
2019-05-09T08:59:53.739Z,990.75
2019-05-09T09:00:53.756Z,990.74
2019-05-09T09:02:14.077Z,990.74
2019-05-09T09:02:54.699Z,990.70
2019-05-09T09:03:53.689Z,990.74
2019-05-09T09:04:53.686Z,990.75
2019-05-09T09:05:53.697Z,990.72
2019-05-09T09:06:53.657Z,990.72
2019-05-09T09:07:53.647Z,990.71
2019-05-09T09:08:53.636Z,990.73
2019-05-09T09:09:53.644Z,990.77
2019-05-09T09:10:53.649Z,990.74
2019-05-09T09:11:53.610Z,990.75
2019-05-09T09:12:53.591Z,990.79
2019-05-09T09:13:53.580Z,990.78
2019-05-09T09:14:53.573Z,990.76
2019-05-09T09:16:12.041Z,990.79
2019-05-09T09:16:54.547Z,990.75
2019-05-09T09:17:53.534Z,990.79
2019-05-09T09:18:53.560Z,990.72
2019-05-09T09:19:53.512Z,990.72
2019-05-09T09:20:53.534Z,990.65
2019-05-09T09:21:53.517Z,990.67
2019-05-09T09:22:53.481Z,990.65
2019-05-09T09:23:53.474Z,990.66
2019-05-09T09:25:54.630Z,990.68
2019-05-09T09:26:53.431Z,990.65
2019-05-09T09:27:53.420Z,990.65
2019-05-09T09:28:53.413Z,990.64
2019-05-09T09:29:53.407Z,990.61
2019-05-09T09:30:53.419Z,990.64
2019-05-09T09:31:53.414Z,990.65
2019-05-09T09:32:53.363Z,990.59
2019-05-09T09:33:53.357Z,990.61
2019-05-09T09:34:53.341Z,990.62
2019-05-09T09:35:53.327Z,990.62
2019-05-09T09:36:53.344Z,990.64
2019-05-09T09:37:53.313Z,990.64
2019-05-09T09:38:53.293Z,990.60
2019-05-09T09:39:53.303Z,990.59
2019-05-09T09:40:53.273Z,990.61
2019-05-09T09:41:53.287Z,990.58
2019-05-09T09:42:53.263Z,990.65
2019-05-09T09:43:53.243Z,990.65
2019-05-09T09:44:53.222Z,990.64
2019-05-09T09:46:10.140Z,990.66
2019-05-09T09:46:54.227Z,990.64
2019-05-09T09:47:53.192Z,990.65
2019-05-09T09:48:53.189Z,990.62
2019-05-09T09:49:55.172Z,990.63
2019-05-09T09:50:53.153Z,990.61
2019-05-09T09:51:53.175Z,990.57
2019-05-09T09:52:53.131Z,990.60
2019-05-09T09:53:53.144Z,990.59
2019-05-09T09:54:53.117Z,990.53
2019-05-09T09:55:53.168Z,990.51
2019-05-09T09:56:53.114Z,990.50
2019-05-09T09:57:53.180Z,990.54
2019-05-09T09:58:53.071Z,990.53
2019-05-09T09:59:53.112Z,990.56
2019-05-09T10:00:53.045Z,990.53
2019-05-09T10:01:53.141Z,990.54
2019-05-09T10:02:53.041Z,990.52
2019-05-09T10:03:53.082Z,990.52
2019-05-09T10:04:53.002Z,990.53
2019-05-09T10:05:53.003Z,990.50
2019-05-09T10:06:53.302Z,990.54
2019-05-09T10:07:53.037Z,990.56
2019-05-09T10:08:52.957Z,990.51
2019-05-09T10:09:53.017Z,990.53
2019-05-09T10:10:52.932Z,990.53
2019-05-09T10:11:56.687Z,990.51
2019-05-09T10:12:53.983Z,990.44
2019-05-09T10:13:52.892Z,990.49
2019-05-09T10:14:52.893Z,990.49
2019-05-09T10:15:52.874Z,990.44
2019-05-09T10:16:52.859Z,990.54
2019-05-09T10:17:52.850Z,990.53
2019-05-09T10:18:52.861Z,990.49
2019-05-09T10:19:52.831Z,990.51
2019-05-09T10:20:52.813Z,990.50
2019-05-09T10:21:52.798Z,990.44
2019-05-09T10:23:00.754Z,990.46
2019-05-09T10:23:53.823Z,990.46
2019-05-09T10:24:52.764Z,990.50
2019-05-09T10:25:52.759Z,990.45
2019-05-09T10:26:52.745Z,990.45
2019-05-09T10:27:52.756Z,990.48
2019-05-09T10:28:52.720Z,990.54
2019-05-09T10:29:52.713Z,990.50
2019-05-09T10:30:52.703Z,990.49
2019-05-09T10:31:52.688Z,990.49
2019-05-09T10:32:52.706Z,990.57
2019-05-09T10:33:52.691Z,990.52
2019-05-09T10:34:52.652Z,990.57
2019-05-09T10:35:52.644Z,990.55
2019-05-09T10:36:52.632Z,990.59
2019-05-09T10:37:52.623Z,990.57
2019-05-09T10:38:52.663Z,990.58
2019-05-09T10:39:52.602Z,990.58
2019-05-09T10:40:53.426Z,990.57
2019-05-09T10:41:52.575Z,990.60
2019-05-09T10:42:52.559Z,990.58
2019-05-09T10:43:52.578Z,990.57
2019-05-09T10:44:52.543Z,990.55
2019-05-09T10:45:52.542Z,990.58
2019-05-09T10:46:57.530Z,990.59
2019-05-09T10:47:53.515Z,990.51
2019-05-09T10:48:52.522Z,990.51
2019-05-09T10:49:52.487Z,990.52
2019-05-09T10:50:54.708Z,990.53
2019-05-09T10:51:52.461Z,990.50
2019-05-09T10:52:52.449Z,990.53
2019-05-09T10:53:52.473Z,990.53
2019-05-09T10:54:52.427Z,990.52
2019-05-09T10:55:52.415Z,990.56
2019-05-09T10:56:52.401Z,990.48
2019-05-09T10:57:53.016Z,990.53
2019-05-09T10:58:52.408Z,990.50
2019-05-09T10:59:52.377Z,990.49
2019-05-09T11:00:52.361Z,990.45
2019-05-09T11:01:52.354Z,990.47
2019-05-09T11:02:52.339Z,990.42
2019-05-09T11:03:52.350Z,990.40
2019-05-09T11:04:52.352Z,990.40
2019-05-09T11:05:52.317Z,990.45
2019-05-09T11:06:52.378Z,990.46
2019-05-09T11:07:52.281Z,990.37
2019-05-09T11:08:52.405Z,990.40
2019-05-09T11:09:52.293Z,990.42
2019-05-09T11:10:52.375Z,990.38
2019-05-09T11:11:52.236Z,990.42
2019-05-09T11:12:52.242Z,990.39
2019-05-09T11:13:52.214Z,990.44
2019-05-09T11:14:52.310Z,990.45
2019-05-09T11:15:52.239Z,990.48
2019-05-09T11:17:06.873Z,990.45
2019-05-09T11:17:53.169Z,990.43
2019-05-09T11:18:52.198Z,990.47
2019-05-09T11:19:52.182Z,990.42
2019-05-09T11:20:52.196Z,990.43
2019-05-09T11:21:52.121Z,990.46
2019-05-09T11:22:52.202Z,990.44
2019-05-09T11:23:52.111Z,990.49
2019-05-09T11:24:52.133Z,990.54
2019-05-09T11:25:52.078Z,990.53
2019-05-09T11:26:52.067Z,990.53
2019-05-09T11:28:06.837Z,990.54
2019-05-09T11:28:53.050Z,990.51
2019-05-09T11:29:52.069Z,990.58
2019-05-09T11:30:52.034Z,990.65
2019-05-09T11:31:52.093Z,990.58
2019-05-09T11:32:52.008Z,990.51
2019-05-09T11:33:51.983Z,990.53
2019-05-09T11:34:52.064Z,990.56
2019-05-09T11:35:52.001Z,990.53
2019-05-09T11:36:52.126Z,990.54
2019-05-09T11:37:51.942Z,990.49
2019-05-09T11:38:51.963Z,990.50
2019-05-09T11:39:51.962Z,990.52
2019-05-09T11:40:51.906Z,990.54
2019-05-09T11:41:51.908Z,990.59
2019-05-09T11:42:51.885Z,990.58
2019-05-09T11:43:51.874Z,990.62
2019-05-09T11:44:51.871Z,990.62
2019-05-09T11:45:51.916Z,990.67
2019-05-09T11:46:51.845Z,990.66
2019-05-09T11:47:51.829Z,990.71
2019-05-09T11:48:51.821Z,990.72
2019-05-09T11:49:51.808Z,990.72
2019-05-09T11:50:51.826Z,990.71
2019-05-09T11:51:51.788Z,990.71
2019-05-09T11:52:51.778Z,990.74
2019-05-09T11:53:51.968Z,990.70
2019-05-09T11:54:51.750Z,990.66
2019-05-09T11:55:51.759Z,990.64
2019-05-09T11:56:51.752Z,990.58
2019-05-09T11:57:51.715Z,990.62
2019-05-09T11:58:51.710Z,990.63
2019-05-09T11:59:51.706Z,990.58
2019-05-09T12:00:51.720Z,990.66
2019-05-09T12:01:51.682Z,990.60
2019-05-09T12:02:51.661Z,990.56
2019-05-09T12:03:52.364Z,990.62
2019-05-09T12:04:51.663Z,990.64
2019-05-09T12:05:51.649Z,990.62
2019-05-09T12:06:51.640Z,990.66
2019-05-09T12:07:51.609Z,990.68
2019-05-09T12:08:51.596Z,990.68
2019-05-09T12:09:51.587Z,990.69
2019-05-09T12:10:51.602Z,990.76
2019-05-09T12:11:51.726Z,990.72
2019-05-09T12:12:51.559Z,990.69
2019-05-09T12:13:51.536Z,990.71
2019-05-09T12:14:51.526Z,990.73
2019-05-09T12:15:51.560Z,990.70
2019-05-09T12:16:51.534Z,990.76
2019-05-09T12:17:58.366Z,990.71
2019-05-09T12:18:52.636Z,990.75
2019-05-09T12:19:51.473Z,990.74
2019-05-09T12:20:51.460Z,990.74
2019-05-09T12:21:51.490Z,990.79
2019-05-09T12:22:51.449Z,990.76
2019-05-09T12:23:51.434Z,990.81
2019-05-09T12:24:53.957Z,990.75
2019-05-09T12:25:51.428Z,990.74
2019-05-09T12:26:51.424Z,990.76
2019-05-09T12:27:51.440Z,990.76
2019-05-09T12:28:51.437Z,990.77
2019-05-09T12:29:51.368Z,990.82